sensor_id;sensor_type;location;lat;lon;timestamp;temperature;humidity
14016;DHT22;7083;48.854;9.158;2023-02-10T00:01:12;-5.70;99.90
14016;DHT22;7083;48.854;9.158;2023-02-10T00:03:39;-5.70;99.90
14016;DHT22;7083;48.854;9.158;2023-02-10T00:06:07;-5.80;99.90
14016;DHT22;7083;48.854;9.158;2023-02-10T00:08:35;-5.80;99.90
14016;DHT22;7083;48.854;9.158;2023-02-10T00:11:04;-5.70;99.90
14016;DHT22;7083;48.854;9.158;2023-02-10T00:13:32;-5.90;99.90
14016;DHT22;7083;48.854;9.158;2023-02-10T00:16:00;-5.70;99.90
14016;DHT22;7083;48.854;9.158;2023-02-10T00:18:28;-5.60;99.90
14016;DHT22;7083;48.854;9.158;2023-02-10T00:20:55;-5.90;99.90
14016;DHT22;7083;48.854;9.158;2023-02-10T00:23:22;-5.90;99.90
14016;DHT22;7083;48.854;9.158;2023-02-10T00:25:49;-5.90;99.90
14016;DHT22;7083;48.854;9.158;2023-02-10T00:28:16;-5.90;99.90
14016;DHT22;7083;48.854;9.158;2023-02-10T00:30:43;-6.00;99.90
14016;DHT22;7083;48.854;9.158;2023-02-10T00:33:09;-5.90;99.90
14016;DHT22;7083;48.854;9.158;2023-02-10T00:35:38;-6.00;99.90
14016;DHT22;7083;48.854;9.158;2023-02-10T00:38:04;-5.70;99.90
14016;DHT22;7083;48.854;9.158;2023-02-10T00:40:32;-5.90;99.90
14016;DHT22;7083;48.854;9.158;2023-02-10T00:42:58;-6.00;99.90
14016;DHT22;7083;48.854;9.158;2023-02-10T00:45:25;-6.20;99.90
14016;DHT22;7083;48.854;9.158;2023-02-10T00:47:52;-6.20;99.90
14016;DHT22;7083;48.854;9.158;2023-02-10T00:50:19;-6.20;99.90
14016;DHT22;7083;48.854;9.158;2023-02-10T00:52:47;-6.20;99.90
14016;DHT22;7083;48.854;9.158;2023-02-10T00:55:14;-6.20;99.90
14016;DHT22;7083;48.854;9.158;2023-02-10T00:57:40;-6.20;99.90
14016;DHT22;7083;48.854;9.158;2023-02-10T01:00:08;-6.20;99.90
14016;DHT22;7083;48.854;9.158;2023-02-10T01:02:35;-6.20;99.90
14016;DHT22;7083;48.854;9.158;2023-02-10T01:05:02;-6.10;99.90
14016;DHT22;7083;48.854;9.158;2023-02-10T01:07:29;-6.30;99.90
14016;DHT22;7083;48.854;9.158;2023-02-10T01:09:57;-6.30;99.90
14016;DHT22;7083;48.854;9.158;2023-02-10T01:12:24;-6.30;99.90
14016;DHT22;7083;48.854;9.158;2023-02-10T01:14:51;-6.40;99.90
14016;DHT22;7083;48.854;9.158;2023-02-10T01:17:17;-6.40;99.90
14016;DHT22;7083;48.854;9.158;2023-02-10T01:19:44;-6.50;99.90
14016;DHT22;7083;48.854;9.158;2023-02-10T01:22:13;-6.50;99.90
14016;DHT22;7083;48.854;9.158;2023-02-10T01:24:39;-6.50;99.90
14016;DHT22;7083;48.854;9.158;2023-02-10T01:27:07;-6.30;99.90
14016;DHT22;7083;48.854;9.158;2023-02-10T01:29:34;-6.50;99.90
14016;DHT22;7083;48.854;9.158;2023-02-10T01:32:01;-6.50;99.90
14016;DHT22;7083;48.854;9.158;2023-02-10T01:34:27;-6.50;99.90
14016;DHT22;7083;48.854;9.158;2023-02-10T01:36:54;-6.50;99.90
14016;DHT22;7083;48.854;9.158;2023-02-10T01:39:21;-6.40;99.90
14016;DHT22;7083;48.854;9.158;2023-02-10T01:41:47;-6.50;99.90
14016;DHT22;7083;48.854;9.158;2023-02-10T01:47:20;-6.50;99.90
14016;DHT22;7083;48.854;9.158;2023-02-10T01:49:49;-6.50;99.90
14016;DHT22;7083;48.854;9.158;2023-02-10T01:52:19;-6.60;99.90
14016;DHT22;7083;48.854;9.158;2023-02-10T01:54:49;-6.60;99.90
14016;DHT22;7083;48.854;9.158;2023-02-10T01:57:17;-6.50;99.90
14016;DHT22;7083;48.854;9.158;2023-02-10T01:59:45;-6.40;99.90
14016;DHT22;7083;48.854;9.158;2023-02-10T02:02:12;-6.50;99.90
14016;DHT22;7083;48.854;9.158;2023-02-10T02:04:47;-6.50;99.90
14016;DHT22;7083;48.854;9.158;2023-02-10T02:07:15;-6.50;99.90
14016;DHT22;7083;48.854;9.158;2023-02-10T02:09:42;-6.50;99.90
14016;DHT22;7083;48.854;9.158;2023-02-10T02:12:15;-6.50;99.90
14016;DHT22;7083;48.854;9.158;2023-02-10T02:14:47;-6.50;99.90
14016;DHT22;7083;48.854;9.158;2023-02-10T02:17:31;-6.50;99.90
14016;DHT22;7083;48.854;9.158;2023-02-10T02:20:43;-6.50;99.90
14016;DHT22;7083;48.854;9.158;2023-02-10T02:23:28;-6.50;99.90
14016;DHT22;7083;48.854;9.158;2023-02-10T02:26:23;-6.50;99.90
14016;DHT22;7083;48.854;9.158;2023-02-10T02:29:09;-6.50;99.90
14016;DHT22;7083;48.854;9.158;2023-02-10T02:31:50;-6.50;99.90
14016;DHT22;7083;48.854;9.158;2023-02-10T02:34:24;-6.60;99.90
14016;DHT22;7083;48.854;9.158;2023-02-10T02:36:58;-6.50;99.90
14016;DHT22;7083;48.854;9.158;2023-02-10T02:39:27;-6.50;99.90
14016;DHT22;7083;48.854;9.158;2023-02-10T02:42:16;-6.40;99.90
14016;DHT22;7083;48.854;9.158;2023-02-10T02:44:46;-6.50;99.90
14016;DHT22;7083;48.854;9.158;2023-02-10T02:47:18;-6.50;99.90
14016;DHT22;7083;48.854;9.158;2023-02-10T02:49:54;-6.50;99.90
14016;DHT22;7083;48.854;9.158;2023-02-10T02:52:31;-6.50;99.90
14016;DHT22;7083;48.854;9.158;2023-02-10T02:55:07;-6.50;99.90
14016;DHT22;7083;48.854;9.158;2023-02-10T02:57:44;-6.50;99.90
14016;DHT22;7083;48.854;9.158;2023-02-10T03:00:17;-6.60;99.90
14016;DHT22;7083;48.854;9.158;2023-02-10T03:02:47;-6.50;99.90
14016;DHT22;7083;48.854;9.158;2023-02-10T03:05:32;-6.50;99.90
14016;DHT22;7083;48.854;9.158;2023-02-10T03:08:00;-6.50;99.90
14016;DHT22;7083;48.854;9.158;2023-02-10T03:10:26;-6.60;99.90
14016;DHT22;7083;48.854;9.158;2023-02-10T03:12:53;-6.60;99.90
14016;DHT22;7083;48.854;9.158;2023-02-10T03:15:20;-6.60;99.90
14016;DHT22;7083;48.854;9.158;2023-02-10T03:17:48;-6.60;99.90
14016;DHT22;7083;48.854;9.158;2023-02-10T03:20:15;-6.60;99.90
14016;DHT22;7083;48.854;9.158;2023-02-10T03:22:42;-6.60;99.90
14016;DHT22;7083;48.854;9.158;2023-02-10T03:25:09;-6.60;99.90
14016;DHT22;7083;48.854;9.158;2023-02-10T03:27:36;-6.60;99.90
14016;DHT22;7083;48.854;9.158;2023-02-10T03:30:03;-6.70;99.90
14016;DHT22;7083;48.854;9.158;2023-02-10T03:32:30;-6.60;99.90
14016;DHT22;7083;48.854;9.158;2023-02-10T03:34:58;-6.70;99.90
14016;DHT22;7083;48.854;9.158;2023-02-10T03:37:25;-6.70;99.90
14016;DHT22;7083;48.854;9.158;2023-02-10T03:39:51;-6.70;99.90
14016;DHT22;7083;48.854;9.158;2023-02-10T03:42:18;-6.70;99.90
14016;DHT22;7083;48.854;9.158;2023-02-10T03:44:45;-6.80;99.90
14016;DHT22;7083;48.854;9.158;2023-02-10T03:47:11;-6.80;99.90
14016;DHT22;7083;48.854;9.158;2023-02-10T03:49:38;-6.80;99.90
14016;DHT22;7083;48.854;9.158;2023-02-10T03:52:06;-6.80;99.90
14016;DHT22;7083;48.854;9.158;2023-02-10T03:54:33;-6.80;99.90
14016;DHT22;7083;48.854;9.158;2023-02-10T03:56:59;-6.90;99.90
14016;DHT22;7083;48.854;9.158;2023-02-10T03:59:26;-6.90;99.90
14016;DHT22;7083;48.854;9.158;2023-02-10T04:01:53;-6.90;99.90
14016;DHT22;7083;48.854;9.158;2023-02-10T04:04:19;-6.90;99.90
14016;DHT22;7083;48.854;9.158;2023-02-10T04:06:46;-6.90;99.90
14016;DHT22;7083;48.854;9.158;2023-02-10T04:09:14;-6.80;99.90
14016;DHT22;7083;48.854;9.158;2023-02-10T04:11:41;-6.90;99.90
14016;DHT22;7083;48.854;9.158;2023-02-10T04:14:07;-6.90;99.90
14016;DHT22;7083;48.854;9.158;2023-02-10T04:16:34;-6.90;99.90
14016;DHT22;7083;48.854;9.158;2023-02-10T04:19:01;-7.00;99.90
14016;DHT22;7083;48.854;9.158;2023-02-10T04:21:27;-7.00;99.90
14016;DHT22;7083;48.854;9.158;2023-02-10T04:23:54;-7.00;99.90
14016;DHT22;7083;48.854;9.158;2023-02-10T04:26:23;-7.00;99.90
14016;DHT22;7083;48.854;9.158;2023-02-10T04:28:49;-7.00;99.90
14016;DHT22;7083;48.854;9.158;2023-02-10T04:31:16;-7.00;99.90
14016;DHT22;7083;48.854;9.158;2023-02-10T04:33:43;-7.10;99.90
14016;DHT22;7083;48.854;9.158;2023-02-10T04:36:10;-7.10;99.90
14016;DHT22;7083;48.854;9.158;2023-02-10T04:38:36;-7.10;99.90
14016;DHT22;7083;48.854;9.158;2023-02-10T04:41:03;-7.10;99.90
14016;DHT22;7083;48.854;9.158;2023-02-10T04:43:32;-7.10;99.90
14016;DHT22;7083;48.854;9.158;2023-02-10T04:45:59;-7.00;99.90
14016;DHT22;7083;48.854;9.158;2023-02-10T04:48:28;-7.10;99.90
14016;DHT22;7083;48.854;9.158;2023-02-10T04:50:54;-7.10;99.90
14016;DHT22;7083;48.854;9.158;2023-02-10T04:53:21;-7.10;99.90
14016;DHT22;7083;48.854;9.158;2023-02-10T04:55:48;-7.10;99.90
14016;DHT22;7083;48.854;9.158;2023-02-10T04:58:14;-7.10;99.90
14016;DHT22;7083;48.854;9.158;2023-02-10T05:00:43;-7.20;99.90
14016;DHT22;7083;48.854;9.158;2023-02-10T05:03:09;-7.10;99.90
14016;DHT22;7083;48.854;9.158;2023-02-10T05:05:36;-7.10;99.90
14016;DHT22;7083;48.854;9.158;2023-02-10T05:08:03;-7.20;99.90
14016;DHT22;7083;48.854;9.158;2023-02-10T05:10:29;-7.10;99.90
14016;DHT22;7083;48.854;9.158;2023-02-10T05:12:56;-7.20;99.90
14016;DHT22;7083;48.854;9.158;2023-02-10T05:15:23;-7.20;99.90
14016;DHT22;7083;48.854;9.158;2023-02-10T05:17:51;-7.20;99.90
14016;DHT22;7083;48.854;9.158;2023-02-10T05:20:17;-7.20;99.90
14016;DHT22;7083;48.854;9.158;2023-02-10T05:22:44;-7.20;99.90
14016;DHT22;7083;48.854;9.158;2023-02-10T05:25:11;-7.20;99.90
14016;DHT22;7083;48.854;9.158;2023-02-10T05:27:40;-7.20;99.90
14016;DHT22;7083;48.854;9.158;2023-02-10T05:30:09;-6.60;99.90
14016;DHT22;7083;48.854;9.158;2023-02-10T05:32:38;-7.30;99.90
14016;DHT22;7083;48.854;9.158;2023-02-10T05:35:07;-7.30;99.90
14016;DHT22;7083;48.854;9.158;2023-02-10T05:37:34;-7.30;99.90
14016;DHT22;7083;48.854;9.158;2023-02-10T05:40:01;-7.30;99.90
14016;DHT22;7083;48.854;9.158;2023-02-10T05:42:28;-7.20;99.90
14016;DHT22;7083;48.854;9.158;2023-02-10T05:44:54;-7.30;99.90
14016;DHT22;7083;48.854;9.158;2023-02-10T05:47:21;-7.30;99.90
14016;DHT22;7083;48.854;9.158;2023-02-10T05:49:48;-7.20;99.90
14016;DHT22;7083;48.854;9.158;2023-02-10T05:52:16;-7.20;99.90
14016;DHT22;7083;48.854;9.158;2023-02-10T05:54:43;-7.20;99.90
14016;DHT22;7083;48.854;9.158;2023-02-10T05:57:09;-7.10;99.90
14016;DHT22;7083;48.854;9.158;2023-02-10T05:59:36;-6.70;99.90
14016;DHT22;7083;48.854;9.158;2023-02-10T06:02:03;-7.10;99.90
14016;DHT22;7083;48.854;9.158;2023-02-10T06:04:29;-7.10;99.90
14016;DHT22;7083;48.854;9.158;2023-02-10T06:06:56;-7.10;99.90
14016;DHT22;7083;48.854;9.158;2023-02-10T06:09:24;-7.20;99.90
14016;DHT22;7083;48.854;9.158;2023-02-10T06:11:52;-7.20;99.90
14016;DHT22;7083;48.854;9.158;2023-02-10T06:14:19;-7.20;99.90
14016;DHT22;7083;48.854;9.158;2023-02-10T06:16:46;-7.20;99.90
14016;DHT22;7083;48.854;9.158;2023-02-10T06:19:13;-7.20;99.90
14016;DHT22;7083;48.854;9.158;2023-02-10T06:21:39;-7.30;99.90
14016;DHT22;7083;48.854;9.158;2023-02-10T06:24:06;-7.30;99.90
14016;DHT22;7083;48.854;9.158;2023-02-10T06:26:34;-7.30;99.90
14016;DHT22;7083;48.854;9.158;2023-02-10T06:29:01;-7.30;99.90
14016;DHT22;7083;48.854;9.158;2023-02-10T06:31:28;-7.30;99.90
14016;DHT22;7083;48.854;9.158;2023-02-10T06:33:54;-7.20;99.90
14016;DHT22;7083;48.854;9.158;2023-02-10T06:36:21;-7.20;99.90
14016;DHT22;7083;48.854;9.158;2023-02-10T06:38:48;-7.20;99.90
14016;DHT22;7083;48.854;9.158;2023-02-10T06:41:14;-7.20;99.90
14016;DHT22;7083;48.854;9.158;2023-02-10T06:43:42;-7.20;99.90
14016;DHT22;7083;48.854;9.158;2023-02-10T06:46:09;-7.10;99.90
14016;DHT22;7083;48.854;9.158;2023-02-10T06:48:38;-7.10;99.90
14016;DHT22;7083;48.854;9.158;2023-02-10T06:51:05;-7.10;99.90
14016;DHT22;7083;48.854;9.158;2023-02-10T06:53:31;-7.00;99.90
14016;DHT22;7083;48.854;9.158;2023-02-10T06:55:58;-7.00;99.90
14016;DHT22;7083;48.854;9.158;2023-02-10T06:58:25;-7.00;99.90
14016;DHT22;7083;48.854;9.158;2023-02-10T07:00:53;-7.00;99.90
14016;DHT22;7083;48.854;9.158;2023-02-10T07:03:20;-7.00;99.90
14016;DHT22;7083;48.854;9.158;2023-02-10T07:05:46;-7.00;99.90
14016;DHT22;7083;48.854;9.158;2023-02-10T07:08:13;-6.90;99.90
14016;DHT22;7083;48.854;9.158;2023-02-10T07:10:40;-6.90;99.90
14016;DHT22;7083;48.854;9.158;2023-02-10T07:13:07;-6.90;99.90
14016;DHT22;7083;48.854;9.158;2023-02-10T07:15:33;-6.80;99.90
14016;DHT22;7083;48.854;9.158;2023-02-10T07:18:01;-6.70;99.90
14016;DHT22;7083;48.854;9.158;2023-02-10T07:20:28;-6.60;99.90
14016;DHT22;7083;48.854;9.158;2023-02-10T07:22:55;-6.50;99.90
14016;DHT22;7083;48.854;9.158;2023-02-10T07:25:21;-6.40;99.90
14016;DHT22;7083;48.854;9.158;2023-02-10T07:27:48;-6.20;99.90
14016;DHT22;7083;48.854;9.158;2023-02-10T07:30:15;-6.20;99.90
14016;DHT22;7083;48.854;9.158;2023-02-10T07:32:42;-6.10;99.90
14016;DHT22;7083;48.854;9.158;2023-02-10T07:35:11;-6.00;99.90
14016;DHT22;7083;48.854;9.158;2023-02-10T07:37:38;-5.90;99.90
14016;DHT22;7083;48.854;9.158;2023-02-10T07:40:06;-5.70;99.90
14016;DHT22;7083;48.854;9.158;2023-02-10T07:42:33;-5.60;99.90
14016;DHT22;7083;48.854;9.158;2023-02-10T07:45:00;-5.60;99.90
14016;DHT22;7083;48.854;9.158;2023-02-10T07:47:27;-5.40;99.90
14016;DHT22;7083;48.854;9.158;2023-02-10T07:49:53;-5.30;99.90
14016;DHT22;7083;48.854;9.158;2023-02-10T07:52:21;-5.20;99.90
14016;DHT22;7083;48.854;9.158;2023-02-10T07:54:48;-5.20;99.90
14016;DHT22;7083;48.854;9.158;2023-02-10T07:57:15;-5.00;99.90
14016;DHT22;7083;48.854;9.158;2023-02-10T07:59:42;-5.00;99.90
14016;DHT22;7083;48.854;9.158;2023-02-10T08:02:09;-4.90;99.90
14016;DHT22;7083;48.854;9.158;2023-02-10T08:04:36;-4.80;99.90
14016;DHT22;7083;48.854;9.158;2023-02-10T08:07:03;-4.70;99.90
14016;DHT22;7083;48.854;9.158;2023-02-10T08:09:31;-4.70;99.90
14016;DHT22;7083;48.854;9.158;2023-02-10T08:11:58;-4.60;99.90
14016;DHT22;7083;48.854;9.158;2023-02-10T08:14:25;-4.40;99.90
14016;DHT22;7083;48.854;9.158;2023-02-10T08:16:51;-4.30;99.90
14016;DHT22;7083;48.854;9.158;2023-02-10T08:19:18;-4.20;99.90
14016;DHT22;7083;48.854;9.158;2023-02-10T08:21:45;-4.10;99.90
14016;DHT22;7083;48.854;9.158;2023-02-10T08:24:11;-4.10;99.90
14016;DHT22;7083;48.854;9.158;2023-02-10T08:26:43;-4.00;99.90
14016;DHT22;7083;48.854;9.158;2023-02-10T08:29:10;-3.80;99.90
14016;DHT22;7083;48.854;9.158;2023-02-10T08:31:38;-3.80;99.90
14016;DHT22;7083;48.854;9.158;2023-02-10T08:34:04;-3.70;99.90
14016;DHT22;7083;48.854;9.158;2023-02-10T08:36:31;-3.60;99.90
14016;DHT22;7083;48.854;9.158;2023-02-10T08:38:58;-3.50;99.90
14016;DHT22;7083;48.854;9.158;2023-02-10T08:41:25;-3.40;99.90
14016;DHT22;7083;48.854;9.158;2023-02-10T08:43:57;-3.40;99.90
14016;DHT22;7083;48.854;9.158;2023-02-10T08:46:24;-3.30;99.90
14016;DHT22;7083;48.854;9.158;2023-02-10T08:48:51;-3.20;99.90
14016;DHT22;7083;48.854;9.158;2023-02-10T08:51:18;-3.10;99.90
14016;DHT22;7083;48.854;9.158;2023-02-10T08:53:44;-3.00;99.90
14016;DHT22;7083;48.854;9.158;2023-02-10T08:56:15;-2.90;99.90
14016;DHT22;7083;48.854;9.158;2023-02-10T08:58:41;-2.80;99.90
14016;DHT22;7083;48.854;9.158;2023-02-10T09:01:10;-2.80;99.90
14016;DHT22;7083;48.854;9.158;2023-02-10T09:03:38;-2.70;99.90
14016;DHT22;7083;48.854;9.158;2023-02-10T09:06:05;-2.60;99.90
14016;DHT22;7083;48.854;9.158;2023-02-10T09:08:31;-2.00;99.90
14016;DHT22;7083;48.854;9.158;2023-02-10T09:10:58;-2.40;99.90
14016;DHT22;7083;48.854;9.158;2023-02-10T09:13:25;-2.40;99.90
14016;DHT22;7083;48.854;9.158;2023-02-10T09:15:52;-2.30;99.90
14016;DHT22;7083;48.854;9.158;2023-02-10T09:18:20;-2.20;99.90
14016;DHT22;7083;48.854;9.158;2023-02-10T09:20:46;-2.10;99.90
14016;DHT22;7083;48.854;9.158;2023-02-10T09:23:13;-2.00;99.90
14016;DHT22;7083;48.854;9.158;2023-02-10T09:25:40;-2.00;99.90
14016;DHT22;7083;48.854;9.158;2023-02-10T09:28:06;-1.90;99.90
14016;DHT22;7083;48.854;9.158;2023-02-10T09:30:34;-1.80;99.90
14016;DHT22;7083;48.854;9.158;2023-02-10T09:33:00;-1.80;99.90
14016;DHT22;7083;48.854;9.158;2023-02-10T09:35:31;-1.70;99.90
14016;DHT22;7083;48.854;9.158;2023-02-10T09:37:58;-1.70;99.90
14016;DHT22;7083;48.854;9.158;2023-02-10T09:40:28;-1.60;99.90
14016;DHT22;7083;48.854;9.158;2023-02-10T09:43:14;-1.50;99.90
14016;DHT22;7083;48.854;9.158;2023-02-10T09:45:47;-1.40;99.90
14016;DHT22;7083;48.854;9.158;2023-02-10T09:48:27;-1.40;99.90
14016;DHT22;7083;48.854;9.158;2023-02-10T09:51:05;-1.30;99.90
14016;DHT22;7083;48.854;9.158;2023-02-10T09:53:37;-1.20;99.90
14016;DHT22;7083;48.854;9.158;2023-02-10T09:56:05;-1.10;99.90
14016;DHT22;7083;48.854;9.158;2023-02-10T09:58:34;-1.00;99.90
14016;DHT22;7083;48.854;9.158;2023-02-10T10:01:10;-1.00;99.90
14016;DHT22;7083;48.854;9.158;2023-02-10T10:03:45;-0.90;99.90
14016;DHT22;7083;48.854;9.158;2023-02-10T10:06:21;-0.80;99.90
14016;DHT22;7083;48.854;9.158;2023-02-10T10:08:54;-0.70;99.90
14016;DHT22;7083;48.854;9.158;2023-02-10T10:11:25;-0.60;99.90
14016;DHT22;7083;48.854;9.158;2023-02-10T10:13:57;-0.50;99.90
14016;DHT22;7083;48.854;9.158;2023-02-10T10:16:51;-0.50;99.90
14016;DHT22;7083;48.854;9.158;2023-02-10T10:19:28;-0.30;99.90
14016;DHT22;7083;48.854;9.158;2023-02-10T10:22:09;-0.20;99.90
14016;DHT22;7083;48.854;9.158;2023-02-10T10:24:46;-0.10;99.90
14016;DHT22;7083;48.854;9.158;2023-02-10T10:27:24;-0.10;99.90
14016;DHT22;7083;48.854;9.158;2023-02-10T10:29:53;0.00;99.90
14016;DHT22;7083;48.854;9.158;2023-02-10T10:32:30;0.10;99.90
14016;DHT22;7083;48.854;9.158;2023-02-10T10:35:00;0.10;99.90
14016;DHT22;7083;48.854;9.158;2023-02-10T10:37:28;0.20;99.90
14016;DHT22;7083;48.854;9.158;2023-02-10T10:39:59;0.30;99.90
14016;DHT22;7083;48.854;9.158;2023-02-10T10:42:30;0.40;99.90
14016;DHT22;7083;48.854;9.158;2023-02-10T10:45:02;0.40;99.90
14016;DHT22;7083;48.854;9.158;2023-02-10T10:47:38;0.60;99.90
14016;DHT22;7083;48.854;9.158;2023-02-10T10:50:12;0.70;99.90
14016;DHT22;7083;48.854;9.158;2023-02-10T10:52:41;0.80;99.90
14016;DHT22;7083;48.854;9.158;2023-02-10T10:55:14;1.00;99.90
14016;DHT22;7083;48.854;9.158;2023-02-10T10:57:42;1.00;99.90
14016;DHT22;7083;48.854;9.158;2023-02-10T11:00:17;1.10;99.90
14016;DHT22;7083;48.854;9.158;2023-02-10T11:02:57;1.30;99.90
14016;DHT22;7083;48.854;9.158;2023-02-10T11:05:30;1.20;99.90
14016;DHT22;7083;48.854;9.158;2023-02-10T11:07:59;1.40;99.90
14016;DHT22;7083;48.854;9.158;2023-02-10T11:10:32;1.50;99.90
14016;DHT22;7083;48.854;9.158;2023-02-10T11:12:59;1.60;99.90
14016;DHT22;7083;48.854;9.158;2023-02-10T11:15:31;1.70;99.90
14016;DHT22;7083;48.854;9.158;2023-02-10T11:18:00;1.80;99.90
14016;DHT22;7083;48.854;9.158;2023-02-10T11:20:30;2.00;99.90
14016;DHT22;7083;48.854;9.158;2023-02-10T11:23:00;2.10;99.90
14016;DHT22;7083;48.854;9.158;2023-02-10T11:25:29;2.20;99.90
14016;DHT22;7083;48.854;9.158;2023-02-10T11:27:58;2.30;99.90
14016;DHT22;7083;48.854;9.158;2023-02-10T11:30:26;2.40;99.90
14016;DHT22;7083;48.854;9.158;2023-02-10T11:32:54;2.50;99.90
14016;DHT22;7083;48.854;9.158;2023-02-10T11:35:22;2.60;99.90
14016;DHT22;7083;48.854;9.158;2023-02-10T11:37:53;2.70;99.90
14016;DHT22;7083;48.854;9.158;2023-02-10T11:40:24;2.80;99.90
14016;DHT22;7083;48.854;9.158;2023-02-10T11:42:52;2.80;99.90
14016;DHT22;7083;48.854;9.158;2023-02-10T11:45:21;2.90;98.90
14016;DHT22;7083;48.854;9.158;2023-02-10T11:47:59;3.00;97.60
14016;DHT22;7083;48.854;9.158;2023-02-10T11:50:29;3.10;95.90
14016;DHT22;7083;48.854;9.158;2023-02-10T11:52:56;3.20;94.90
14016;DHT22;7083;48.854;9.158;2023-02-10T11:55:30;3.20;94.30
14016;DHT22;7083;48.854;9.158;2023-02-10T11:58:18;3.40;93.70
14016;DHT22;7083;48.854;9.158;2023-02-10T12:01:11;3.40;93.50
14016;DHT22;7083;48.854;9.158;2023-02-10T12:03:50;3.50;93.60
14016;DHT22;7083;48.854;9.158;2023-02-10T12:06:24;3.50;93.20
14016;DHT22;7083;48.854;9.158;2023-02-10T12:08:56;3.60;92.80
14016;DHT22;7083;48.854;9.158;2023-02-10T12:11:30;3.70;91.30
14016;DHT22;7083;48.854;9.158;2023-02-10T12:14:04;3.80;91.20
14016;DHT22;7083;48.854;9.158;2023-02-10T12:16:38;3.90;90.70
14016;DHT22;7083;48.854;9.158;2023-02-10T12:19:15;4.00;89.70
14016;DHT22;7083;48.854;9.158;2023-02-10T12:22:02;4.10;89.20
14016;DHT22;7083;48.854;9.158;2023-02-10T12:24:52;4.20;89.50
14016;DHT22;7083;48.854;9.158;2023-02-10T12:27:27;4.30;89.40
14016;DHT22;7083;48.854;9.158;2023-02-10T12:30:02;4.30;89.40
14016;DHT22;7083;48.854;9.158;2023-02-10T12:32:39;4.50;89.80
14016;DHT22;7083;48.854;9.158;2023-02-10T12:35:22;4.60;89.60
14016;DHT22;7083;48.854;9.158;2023-02-10T12:38:01;4.70;88.40
14016;DHT22;7083;48.854;9.158;2023-02-10T12:40:46;4.80;87.20
14016;DHT22;7083;48.854;9.158;2023-02-10T12:46:17;5.00;85.30
14016;DHT22;7083;48.854;9.158;2023-02-10T12:49:15;5.00;83.30
14016;DHT22;7083;48.854;9.158;2023-02-10T12:51:57;5.10;84.00
14016;DHT22;7083;48.854;9.158;2023-02-10T12:54:32;5.10;83.40
14016;DHT22;7083;48.854;9.158;2023-02-10T12:57:05;5.20;84.50
14016;DHT22;7083;48.854;9.158;2023-02-10T12:59:38;5.40;84.10
14016;DHT22;7083;48.854;9.158;2023-02-10T13:02:13;5.50;84.10
14016;DHT22;7083;48.854;9.158;2023-02-10T13:04:43;5.60;82.90
14016;DHT22;7083;48.854;9.158;2023-02-10T13:07:19;5.60;83.40
14016;DHT22;7083;48.854;9.158;2023-02-10T13:09:53;5.70;83.80
14016;DHT22;7083;48.854;9.158;2023-02-10T13:12:23;5.80;84.40
14016;DHT22;7083;48.854;9.158;2023-02-10T13:14:54;6.00;82.50
14016;DHT22;7083;48.854;9.158;2023-02-10T13:17:24;6.10;82.20
14016;DHT22;7083;48.854;9.158;2023-02-10T13:19:57;6.10;79.70
14016;DHT22;7083;48.854;9.158;2023-02-10T13:22:41;6.10;79.60
14016;DHT22;7083;48.854;9.158;2023-02-10T13:25:13;6.20;80.30
14016;DHT22;7083;48.854;9.158;2023-02-10T13:27:50;6.30;80.70
14016;DHT22;7083;48.854;9.158;2023-02-10T13:30:36;6.30;79.70
14016;DHT22;7083;48.854;9.158;2023-02-10T13:33:17;6.40;78.80
14016;DHT22;7083;48.854;9.158;2023-02-10T13:35:47;6.50;77.60
14016;DHT22;7083;48.854;9.158;2023-02-10T13:38:17;6.40;78.70
14016;DHT22;7083;48.854;9.158;2023-02-10T13:40:47;6.50;78.10
14016;DHT22;7083;48.854;9.158;2023-02-10T13:43:26;6.50;78.90
14016;DHT22;7083;48.854;9.158;2023-02-10T13:45:55;6.60;77.30
14016;DHT22;7083;48.854;9.158;2023-02-10T13:48:24;6.50;78.10
14016;DHT22;7083;48.854;9.158;2023-02-10T13:50:56;6.60;78.20
14016;DHT22;7083;48.854;9.158;2023-02-10T13:53:29;6.60;78.60
14016;DHT22;7083;48.854;9.158;2023-02-10T13:56:04;6.70;76.40
14016;DHT22;7083;48.854;9.158;2023-02-10T13:58:32;6.70;75.30
14016;DHT22;7083;48.854;9.158;2023-02-10T14:01:01;6.70;74.40
14016;DHT22;7083;48.854;9.158;2023-02-10T14:03:30;6.70;74.00
14016;DHT22;7083;48.854;9.158;2023-02-10T14:05:59;6.60;75.60
14016;DHT22;7083;48.854;9.158;2023-02-10T14:08:30;6.60;77.10
14016;DHT22;7083;48.854;9.158;2023-02-10T14:10:59;6.70;76.60
14016;DHT22;7083;48.854;9.158;2023-02-10T14:13:28;6.90;76.10
14016;DHT22;7083;48.854;9.158;2023-02-10T14:15:59;7.00;76.10
14016;DHT22;7083;48.854;9.158;2023-02-10T14:18:29;7.30;75.50
14016;DHT22;7083;48.854;9.158;2023-02-10T14:20:58;7.80;73.90
14016;DHT22;7083;48.854;9.158;2023-02-10T14:23:26;8.20;71.50
14016;DHT22;7083;48.854;9.158;2023-02-10T14:25:58;8.50;69.00
14016;DHT22;7083;48.854;9.158;2023-02-10T14:28:28;9.20;69.70
14016;DHT22;7083;48.854;9.158;2023-02-10T14:30:57;9.90;67.80
14016;DHT22;7083;48.854;9.158;2023-02-10T14:33:32;10.30;64.40
14016;DHT22;7083;48.854;9.158;2023-02-10T14:36:00;10.30;60.70
14016;DHT22;7083;48.854;9.158;2023-02-10T14:38:28;9.90;61.60
14016;DHT22;7083;48.854;9.158;2023-02-10T14:40:58;9.30;64.60
14016;DHT22;7083;48.854;9.158;2023-02-10T14:43:27;9.00;66.50
14016;DHT22;7083;48.854;9.158;2023-02-10T14:45:56;8.50;66.60
14016;DHT22;7083;48.854;9.158;2023-02-10T14:48:24;8.10;68.30
14016;DHT22;7083;48.854;9.158;2023-02-10T14:51:04;7.70;69.10
14016;DHT22;7083;48.854;9.158;2023-02-10T14:53:34;7.30;70.30
14016;DHT22;7083;48.854;9.158;2023-02-10T14:56:05;6.90;72.50
14016;DHT22;7083;48.854;9.158;2023-02-10T14:58:32;6.70;73.80
14016;DHT22;7083;48.854;9.158;2023-02-10T15:01:04;6.50;73.90
14016;DHT22;7083;48.854;9.158;2023-02-10T15:03:32;6.30;74.00
14016;DHT22;7083;48.854;9.158;2023-02-10T15:05:59;6.20;74.80
14016;DHT22;7083;48.854;9.158;2023-02-10T15:08:34;6.10;75.40
14016;DHT22;7083;48.854;9.158;2023-02-10T15:11:03;6.00;75.90
14016;DHT22;7083;48.854;9.158;2023-02-10T15:13:32;5.90;76.80
14016;DHT22;7083;48.854;9.158;2023-02-10T15:16:01;5.70;77.40
14016;DHT22;7083;48.854;9.158;2023-02-10T15:18:30;5.60;77.30
14016;DHT22;7083;48.854;9.158;2023-02-10T15:20:59;5.50;77.00
14016;DHT22;7083;48.854;9.158;2023-02-10T15:23:26;5.40;77.60
14016;DHT22;7083;48.854;9.158;2023-02-10T15:26:02;5.40;77.70
14016;DHT22;7083;48.854;9.158;2023-02-10T15:28:30;5.40;77.20
14016;DHT22;7083;48.854;9.158;2023-02-10T15:31:04;5.40;76.80
14016;DHT22;7083;48.854;9.158;2023-02-10T15:33:34;5.40;76.60
14016;DHT22;7083;48.854;9.158;2023-02-10T15:36:18;5.30;77.00
14016;DHT22;7083;48.854;9.158;2023-02-10T15:38:50;5.30;76.60
14016;DHT22;7083;48.854;9.158;2023-02-10T15:41:31;5.10;76.70
14016;DHT22;7083;48.854;9.158;2023-02-10T15:43:59;5.00;77.40
14016;DHT22;7083;48.854;9.158;2023-02-10T15:46:27;5.00;78.10
14016;DHT22;7083;48.854;9.158;2023-02-10T15:49:05;5.00;78.00
14016;DHT22;7083;48.854;9.158;2023-02-10T15:51:32;4.90;78.50
14016;DHT22;7083;48.854;9.158;2023-02-10T15:54:02;4.70;78.90
14016;DHT22;7083;48.854;9.158;2023-02-10T15:56:30;4.60;79.00
14016;DHT22;7083;48.854;9.158;2023-02-10T15:58:57;4.30;79.30
14016;DHT22;7083;48.854;9.158;2023-02-10T16:01:23;4.00;79.80
14016;DHT22;7083;48.854;9.158;2023-02-10T16:03:50;3.80;80.90
14016;DHT22;7083;48.854;9.158;2023-02-10T16:06:17;3.50;81.40
14016;DHT22;7083;48.854;9.158;2023-02-10T16:08:45;3.30;82.30
14016;DHT22;7083;48.854;9.158;2023-02-10T16:11:12;3.10;82.90
14016;DHT22;7083;48.854;9.158;2023-02-10T16:13:40;2.90;83.50
14016;DHT22;7083;48.854;9.158;2023-02-10T16:16:12;2.80;84.40